sensor_id;sensor_type;location;lat;lon;timestamp;pressure;altitude;pressure_sealevel;temperature;humidity
54554;BME280;40450;55.848;-3.572;2023-04-26T00:01:57;99694.06;;;4.43;57.81
54554;BME280;40450;55.848;-3.572;2023-04-26T00:04:28;99694.08;;;5.33;56.69
54554;BME280;40450;55.848;-3.572;2023-04-26T00:06:58;99698.45;;;5.42;56.01
54554;BME280;40450;55.848;-3.572;2023-04-26T00:09:29;99696.67;;;6.10;55.42
54554;BME280;40450;55.848;-3.572;2023-04-26T00:11:59;99690.55;;;6.61;54.09
54554;BME280;40450;55.848;-3.572;2023-04-26T00:14:30;99691.87;;;6.56;53.55
54554;BME280;40450;55.848;-3.572;2023-04-26T00:17:00;99694.03;;;6.53;52.83
54554;BME280;40450;55.848;-3.572;2023-04-26T00:19:30;99699.65;;;5.46;53.75
54554;BME280;40450;55.848;-3.572;2023-04-26T00:22:01;99697.37;;;7.24;52.27
54554;BME280;40450;55.848;-3.572;2023-04-26T00:24:32;99693.30;;;7.60;51.36
54554;BME280;40450;55.848;-3.572;2023-04-26T00:27:02;99695.79;;;7.88;50.95
54554;BME280;40450;55.848;-3.572;2023-04-26T00:29:33;99695.51;;;8.03;50.80
54554;BME280;40450;55.848;-3.572;2023-04-26T00:32:03;99694.91;;;7.43;49.95
54554;BME280;40450;55.848;-3.572;2023-04-26T00:34:34;99693.94;;;6.69;51.17
54554;BME280;40450;55.848;-3.572;2023-04-26T00:37:04;99691.71;;;6.80;51.15
54554;BME280;40450;55.848;-3.572;2023-04-26T00:39:34;99691.21;;;7.17;51.68
54554;BME280;40450;55.848;-3.572;2023-04-26T00:42:05;99686.85;;;7.40;50.87
54554;BME280;40450;55.848;-3.572;2023-04-26T00:44:35;99684.42;;;7.58;50.61
54554;BME280;40450;55.848;-3.572;2023-04-26T00:47:06;99684.52;;;7.80;49.50
54554;BME280;40450;55.848;-3.572;2023-04-26T00:49:36;99680.93;;;7.96;49.83
54554;BME280;40450;55.848;-3.572;2023-04-26T00:52:07;99685.46;;;8.17;49.26
54554;BME280;40450;55.848;-3.572;2023-04-26T00:54:37;99684.88;;;8.04;48.83
54554;BME280;40450;55.848;-3.572;2023-04-26T00:57:07;99679.66;;;7.40;48.89
54554;BME280;40450;55.848;-3.572;2023-04-26T00:59:38;99678.28;;;6.75;50.53
54554;BME280;40450;55.848;-3.572;2023-04-26T01:02:08;99673.35;;;6.90;50.30
54554;BME280;40450;55.848;-3.572;2023-04-26T01:04:39;99669.02;;;6.85;50.47
54554;BME280;40450;55.848;-3.572;2023-04-26T01:07:09;99671.30;;;6.99;50.39
54554;BME280;40450;55.848;-3.572;2023-04-26T01:09:40;99669.34;;;7.05;50.29
54554;BME280;40450;55.848;-3.572;2023-04-26T01:12:12;99668.25;;;7.19;50.01
54554;BME280;40450;55.848;-3.572;2023-04-26T01:14:41;99667.89;;;7.03;50.24
54554;BME280;40450;55.848;-3.572;2023-04-26T01:17:11;99660.63;;;6.92;50.39
54554;BME280;40450;55.848;-3.572;2023-04-26T01:19:46;99658.66;;;6.92;50.26
54554;BME280;40450;55.848;-3.572;2023-04-26T01:22:12;99656.30;;;7.35;50.27
54554;BME280;40450;55.848;-3.572;2023-04-26T01:24:44;99651.76;;;7.53;49.60
54554;BME280;40450;55.848;-3.572;2023-04-26T01:27:13;99651.61;;;7.38;49.15
54554;BME280;40450;55.848;-3.572;2023-04-26T01:29:44;99647.55;;;7.29;49.69
54554;BME280;40450;55.848;-3.572;2023-04-26T01:32:14;99643.94;;;7.22;49.64
54554;BME280;40450;55.848;-3.572;2023-04-26T01:34:45;99642.06;;;6.71;50.08
54554;BME280;40450;55.848;-3.572;2023-04-26T01:37:15;99637.98;;;6.98;49.94
54554;BME280;40450;55.848;-3.572;2023-04-26T01:39:45;99639.43;;;6.98;50.06
54554;BME280;40450;55.848;-3.572;2023-04-26T01:42:16;99637.46;;;7.14;49.74
54554;BME280;40450;55.848;-3.572;2023-04-26T01:44:47;99634.76;;;6.75;49.79
54554;BME280;40450;55.848;-3.572;2023-04-26T01:47:17;99632.36;;;5.96;51.72
54554;BME280;40450;55.848;-3.572;2023-04-26T01:49:48;99630.77;;;5.92;51.78
54554;BME280;40450;55.848;-3.572;2023-04-26T01:52:18;99627.62;;;5.81;51.68
54554;BME280;40450;55.848;-3.572;2023-04-26T01:54:49;99629.28;;;5.75;52.60
54554;BME280;40450;55.848;-3.572;2023-04-26T01:57:19;99622.17;;;6.11;52.33
54554;BME280;40450;55.848;-3.572;2023-04-26T01:59:50;99622.10;;;6.20;52.10
54554;BME280;40450;55.848;-3.572;2023-04-26T02:02:20;99624.72;;;6.46;51.75
54554;BME280;40450;55.848;-3.572;2023-04-26T02:04:54;99623.45;;;5.79;52.67
54554;BME280;40450;55.848;-3.572;2023-04-26T02:07:22;99628.37;;;5.20;54.91
54554;BME280;40450;55.848;-3.572;2023-04-26T02:09:52;99620.75;;;5.69;54.09
54554;BME280;40450;55.848;-3.572;2023-04-26T02:12:22;99618.83;;;6.15;53.52
54554;BME280;40450;55.848;-3.572;2023-04-26T02:14:53;99615.78;;;6.19;52.98
54554;BME280;40450;55.848;-3.572;2023-04-26T02:17:24;99618.42;;;6.13;52.95
54554;BME280;40450;55.848;-3.572;2023-04-26T02:19:54;99620.95;;;5.57;54.04
54554;BME280;40450;55.848;-3.572;2023-04-26T02:22:24;99621.65;;;4.78;56.32
54554;BME280;40450;55.848;-3.572;2023-04-26T02:24:54;99616.46;;;4.19;58.11
54554;BME280;40450;55.848;-3.572;2023-04-26T02:27:25;99617.77;;;3.39;60.54
54554;BME280;40450;55.848;-3.572;2023-04-26T02:29:55;99615.73;;;3.31;60.70
54554;BME280;40450;55.848;-3.572;2023-04-26T02:32:25;99612.93;;;3.57;60.38
54554;BME280;40450;55.848;-3.572;2023-04-26T02:34:56;99614.40;;;3.18;61.85
54554;BME280;40450;55.848;-3.572;2023-04-26T02:37:26;99615.12;;;2.94;62.53
54554;BME280;40450;55.848;-3.572;2023-04-26T02:39:57;99612.19;;;2.79;63.35
54554;BME280;40450;55.848;-3.572;2023-04-26T02:42:27;99613.06;;;3.57;59.21
54554;BME280;40450;55.848;-3.572;2023-04-26T02:44:58;99614.33;;;4.41;59.58
54554;BME280;40450;55.848;-3.572;2023-04-26T02:47:28;99609.69;;;4.45;58.71
54554;BME280;40450;55.848;-3.572;2023-04-26T02:49:59;99610.94;;;3.15;61.72
54554;BME280;40450;55.848;-3.572;2023-04-26T02:52:29;99610.04;;;2.49;63.82
54554;BME280;40450;55.848;-3.572;2023-04-26T02:54:59;99606.36;;;2.32;64.56
54554;BME280;40450;55.848;-3.572;2023-04-26T02:57:30;99604.55;;;2.03;65.44
54554;BME280;40450;55.848;-3.572;2023-04-26T03:00:01;99601.38;;;2.19;65.28
54554;BME280;40450;55.848;-3.572;2023-04-26T03:02:31;99592.62;;;3.28;62.82
54554;BME280;40450;55.848;-3.572;2023-04-26T03:05:02;99593.52;;;4.17;61.75
54554;BME280;40450;55.848;-3.572;2023-04-26T03:07:32;99590.84;;;4.03;59.79
54554;BME280;40450;55.848;-3.572;2023-04-26T03:10:04;99586.72;;;5.22;59.55
54554;BME280;40450;55.848;-3.572;2023-04-26T03:12:33;99585.82;;;5.14;56.97
54554;BME280;40450;55.848;-3.572;2023-04-26T03:15:04;99584.14;;;5.55;58.03
54554;BME280;40450;55.848;-3.572;2023-04-26T03:17:34;99581.04;;;5.77;56.36
54554;BME280;40450;55.848;-3.572;2023-04-26T03:20:06;99579.78;;;5.76;55.55
54554;BME280;40450;55.848;-3.572;2023-04-26T03:22:35;99576.66;;;5.94;55.52
54554;BME280;40450;55.848;-3.572;2023-04-26T03:25:06;99576.22;;;6.10;54.85
54554;BME280;40450;55.848;-3.572;2023-04-26T03:27:37;99573.32;;;5.66;55.33
54554;BME280;40450;55.848;-3.572;2023-04-26T03:30:08;99574.76;;;5.81;55.83
54554;BME280;40450;55.848;-3.572;2023-04-26T03:32:38;99574.26;;;5.71;55.12
54554;BME280;40450;55.848;-3.572;2023-04-26T03:35:08;99571.06;;;5.77;55.21
54554;BME280;40450;55.848;-3.572;2023-04-26T03:37:38;99570.14;;;5.96;55.15
54554;BME280;40450;55.848;-3.572;2023-04-26T03:40:10;99576.10;;;4.87;56.68
54554;BME280;40450;55.848;-3.572;2023-04-26T03:42:39;99570.66;;;3.30;60.84
54554;BME280;40450;55.848;-3.572;2023-04-26T03:45:10;99569.00;;;2.35;63.82
54554;BME280;40450;55.848;-3.572;2023-04-26T03:47:40;99570.58;;;1.86;65.58
54554;BME280;40450;55.848;-3.572;2023-04-26T03:50:10;99567.74;;;1.50;66.94
54554;BME280;40450;55.848;-3.572;2023-04-26T03:52:41;99566.57;;;1.48;66.92
54554;BME280;40450;55.848;-3.572;2023-04-26T03:55:12;99567.84;;;1.14;68.27
54554;BME280;40450;55.848;-3.572;2023-04-26T03:57:42;99567.34;;;1.63;66.68
54554;BME280;40450;55.848;-3.572;2023-04-26T04:00:13;99565.65;;;2.34;64.98
54554;BME280;40450;55.848;-3.572;2023-04-26T04:02:43;99563.34;;;3.04;64.46
54554;BME280;40450;55.848;-3.572;2023-04-26T04:05:13;99564.32;;;3.61;62.17
54554;BME280;40450;55.848;-3.572;2023-04-26T04:07:44;99565.66;;;3.89;62.07
54554;BME280;40450;55.848;-3.572;2023-04-26T04:10:14;99566.14;;;4.35;61.09
54554;BME280;40450;55.848;-3.572;2023-04-26T04:12:45;99561.10;;;5.07;60.78
54554;BME280;40450;55.848;-3.572;2023-04-26T04:15:15;99563.09;;;5.28;60.70
54554;BME280;40450;55.848;-3.572;2023-04-26T04:17:46;99556.79;;;5.64;60.06
54554;BME280;40450;55.848;-3.572;2023-04-26T04:20:16;99557.30;;;6.11;57.48
54554;BME280;40450;55.848;-3.572;2023-04-26T04:22:47;99560.14;;;6.00;56.44
54554;BME280;40450;55.848;-3.572;2023-04-26T04:25:17;99563.03;;;6.13;56.79
54554;BME280;40450;55.848;-3.572;2023-04-26T04:27:48;99564.92;;;6.26;57.29
54554;BME280;40450;55.848;-3.572;2023-04-26T04:30:18;99567.67;;;5.12;54.77
54554;BME280;40450;55.848;-3.572;2023-04-26T04:32:48;99567.27;;;5.59;56.50
54554;BME280;40450;55.848;-3.572;2023-04-26T04:35:19;99567.98;;;5.76;56.29
54554;BME280;40450;55.848;-3.572;2023-04-26T04:37:49;99567.46;;;5.63;55.38
54554;BME280;40450;55.848;-3.572;2023-04-26T04:40:20;99570.51;;;5.94;56.08
54554;BME280;40450;55.848;-3.572;2023-04-26T04:42:50;99572.35;;;6.16;56.02
54554;BME280;40450;55.848;-3.572;2023-04-26T04:45:21;99574.99;;;6.32;55.58
54554;BME280;40450;55.848;-3.572;2023-04-26T04:47:51;99574.61;;;6.43;54.37
54554;BME280;40450;55.848;-3.572;2023-04-26T04:50:22;99580.62;;;5.28;55.59
54554;BME280;40450;55.848;-3.572;2023-04-26T04:52:52;99580.37;;;3.60;59.89
54554;BME280;40450;55.848;-3.572;2023-04-26T04:55:23;99583.23;;;2.69;62.40
54554;BME280;40450;55.848;-3.572;2023-04-26T04:57:53;99586.31;;;1.88;65.09
54554;BME280;40450;55.848;-3.572;2023-04-26T05:00:24;99588.11;;;1.58;65.89
54554;BME280;40450;55.848;-3.572;2023-04-26T05:02:54;99590.91;;;1.59;66.20
54554;BME280;40450;55.848;-3.572;2023-04-26T05:05:26;99589.24;;;1.18;67.85
54554;BME280;40450;55.848;-3.572;2023-04-26T05:07:55;99591.25;;;0.54;69.72
54554;BME280;40450;55.848;-3.572;2023-04-26T05:10:25;99598.67;;;-0.04;71.31
54554;BME280;40450;55.848;-3.572;2023-04-26T05:12:56;99597.32;;;0.16;71.48
54554;BME280;40450;55.848;-3.572;2023-04-26T05:15:26;99599.84;;;-0.04;71.63
54554;BME280;40450;55.848;-3.572;2023-04-26T05:17:57;99594.74;;;0.04;72.29
54554;BME280;40450;55.848;-3.572;2023-04-26T05:20:27;99591.42;;;1.06;70.07
54554;BME280;40450;55.848;-3.572;2023-04-26T05:22:58;99590.76;;;1.99;69.12
54554;BME280;40450;55.848;-3.572;2023-04-26T05:25:29;99587.50;;;3.26;67.95
54554;BME280;40450;55.848;-3.572;2023-04-26T05:27:59;99590.60;;;3.96;65.60
54554;BME280;40450;55.848;-3.572;2023-04-26T05:30:29;99593.81;;;4.73;64.71
54554;BME280;40450;55.848;-3.572;2023-04-26T05:33:00;99592.98;;;4.32;62.21
54554;BME280;40450;55.848;-3.572;2023-04-26T05:35:30;99593.34;;;4.62;62.71
54554;BME280;40450;55.848;-3.572;2023-04-26T05:38:01;99589.60;;;4.83;62.09
54554;BME280;40450;55.848;-3.572;2023-04-26T05:40:31;99587.72;;;4.36;61.39
54554;BME280;40450;55.848;-3.572;2023-04-26T05:43:02;99587.85;;;4.04;62.59
54554;BME280;40450;55.848;-3.572;2023-04-26T05:45:32;99586.08;;;3.63;63.95
54554;BME280;40450;55.848;-3.572;2023-04-26T05:48:03;99586.52;;;3.92;63.68
54554;BME280;40450;55.848;-3.572;2023-04-26T05:50:33;99591.76;;;4.23;63.45
54554;BME280;40450;55.848;-3.572;2023-04-26T05:53:04;99590.86;;;4.89;62.99
54554;BME280;40450;55.848;-3.572;2023-04-26T05:55:35;99591.95;;;4.27;63.03
54554;BME280;40450;55.848;-3.572;2023-04-26T05:58:05;99597.07;;;4.69;62.18
54554;BME280;40450;55.848;-3.572;2023-04-26T06:00:36;99597.68;;;3.81;63.34
54554;BME280;40450;55.848;-3.572;2023-04-26T06:03:06;99596.41;;;3.11;65.30
54554;BME280;40450;55.848;-3.572;2023-04-26T06:05:36;99596.78;;;2.61;67.63
54554;BME280;40450;55.848;-3.572;2023-04-26T06:08:08;99602.59;;;2.24;68.55
54554;BME280;40450;55.848;-3.572;2023-04-26T06:10:37;99601.83;;;3.49;66.96
54554;BME280;40450;55.848;-3.572;2023-04-26T06:13:08;99604.53;;;4.07;65.54
54554;BME280;40450;55.848;-3.572;2023-04-26T06:15:39;99612.02;;;4.09;65.61
54554;BME280;40450;55.848;-3.572;2023-04-26T06:18:09;99613.11;;;4.99;64.49
54554;BME280;40450;55.848;-3.572;2023-04-26T06:20:40;99609.11;;;5.69;63.03
54554;BME280;40450;55.848;-3.572;2023-04-26T06:23:10;99608.16;;;6.01;62.76
54554;BME280;40450;55.848;-3.572;2023-04-26T06:25:41;99614.33;;;5.60;63.29
54554;BME280;40450;55.848;-3.572;2023-04-26T06:28:11;99608.81;;;6.14;62.89
54554;BME280;40450;55.848;-3.572;2023-04-26T06:30:42;99608.01;;;6.22;61.13
54554;BME280;40450;55.848;-3.572;2023-04-26T06:33:12;99606.43;;;6.70;60.24
54554;BME280;40450;55.848;-3.572;2023-04-26T06:35:43;99609.83;;;7.19;61.17
54554;BME280;40450;55.848;-3.572;2023-04-26T06:38:13;99608.70;;;7.05;59.13
54554;BME280;40450;55.848;-3.572;2023-04-26T06:40:43;99614.15;;;7.40;59.75
54554;BME280;40450;55.848;-3.572;2023-04-26T06:43:14;99609.87;;;7.93;59.70
54554;BME280;40450;55.848;-3.572;2023-04-26T06:45:44;99607.35;;;8.24;59.39
54554;BME280;40450;55.848;-3.572;2023-04-26T06:48:15;99607.51;;;8.61;58.72
54554;BME280;40450;55.848;-3.572;2023-04-26T06:50:45;99607.83;;;7.73;56.28
54554;BME280;40450;55.848;-3.572;2023-04-26T06:53:16;99607.80;;;6.66;59.75
54554;BME280;40450;55.848;-3.572;2023-04-26T06:55:47;99609.58;;;6.87;59.59
54554;BME280;40450;55.848;-3.572;2023-04-26T06:58:17;99607.51;;;7.62;58.36
54554;BME280;40450;55.848;-3.572;2023-04-26T07:00:47;99614.18;;;5.56;60.86
54554;BME280;40450;55.848;-3.572;2023-04-26T07:03:18;99608.89;;;7.59;58.83
54554;BME280;40450;55.848;-3.572;2023-04-26T07:05:49;99606.88;;;8.49;58.56
54554;BME280;40450;55.848;-3.572;2023-04-26T07:08:19;99608.07;;;8.74;57.05
54554;BME280;40450;55.848;-3.572;2023-04-26T07:10:50;99608.83;;;9.14;55.76
54554;BME280;40450;55.848;-3.572;2023-04-26T07:13:20;99604.92;;;9.07;56.34
54554;BME280;40450;55.848;-3.572;2023-04-26T07:15:50;99604.29;;;9.16;55.29
54554;BME280;40450;55.848;-3.572;2023-04-26T07:18:21;99604.36;;;9.42;54.41
54554;BME280;40450;55.848;-3.572;2023-04-26T07:20:51;99603.51;;;9.48;54.93
54554;BME280;40450;55.848;-3.572;2023-04-26T07:23:21;99604.40;;;9.19;55.05
54554;BME280;40450;55.848;-3.572;2023-04-26T07:25:52;99605.63;;;7.30;57.09
54554;BME280;40450;55.848;-3.572;2023-04-26T07:28:22;99606.25;;;8.68;56.31
54554;BME280;40450;55.848;-3.572;2023-04-26T07:30:52;99606.01;;;8.76;54.88
54554;BME280;40450;55.848;-3.572;2023-04-26T07:33:23;99608.78;;;9.63;55.89
54554;BME280;40450;55.848;-3.572;2023-04-26T07:35:54;99605.65;;;9.67;54.63
54554;BME280;40450;55.848;-3.572;2023-04-26T07:38:24;99605.56;;;9.68;52.81
54554;BME280;40450;55.848;-3.572;2023-04-26T07:40:54;99602.88;;;8.93;54.43
54554;BME280;40450;55.848;-3.572;2023-04-26T07:43:26;99606.50;;;9.20;54.65
54554;BME280;40450;55.848;-3.572;2023-04-26T07:45:58;99609.35;;;9.65;54.93
54554;BME280;40450;55.848;-3.572;2023-04-26T07:48:26;99604.46;;;10.16;54.25
54554;BME280;40450;55.848;-3.572;2023-04-26T07:50:56;99599.01;;;10.70;54.11
54554;BME280;40450;55.848;-3.572;2023-04-26T07:53:27;99604.81;;;10.08;54.37
54554;BME280;40450;55.848;-3.572;2023-04-26T07:55:57;99603.76;;;10.44;53.57
54554;BME280;40450;55.848;-3.572;2023-04-26T07:58:28;99599.83;;;11.26;52.31
54554;BME280;40450;55.848;-3.572;2023-04-26T08:00:57;99603.65;;;10.15;50.56
54554;BME280;40450;55.848;-3.572;2023-04-26T08:03:28;99596.06;;;10.44;52.05
54554;BME280;40450;55.848;-3.572;2023-04-26T08:05:58;99597.02;;;10.46;52.36
54554;BME280;40450;55.848;-3.572;2023-04-26T08:08:29;99596.84;;;11.00;51.83
54554;BME280;40450;55.848;-3.572;2023-04-26T08:10:59;99599.95;;;10.00;53.31
54554;BME280;40450;55.848;-3.572;2023-04-26T08:13:29;99601.95;;;9.97;52.84
54554;BME280;40450;55.848;-3.572;2023-04-26T08:15:59;99600.45;;;9.97;53.47
54554;BME280;40450;55.848;-3.572;2023-04-26T08:18:30;99599.78;;;10.41;51.98
54554;BME280;40450;55.848;-3.572;2023-04-26T08:21:00;99597.06;;;11.28;51.78
54554;BME280;40450;55.848;-3.572;2023-04-26T08:23:32;99593.63;;;11.74;49.81
54554;BME280;40450;55.848;-3.572;2023-04-26T08:26:01;99593.16;;;10.64;50.34
54554;BME280;40450;55.848;-3.572;2023-04-26T08:28:32;99602.47;;;9.87;52.63
54554;BME280;40450;55.848;-3.572;2023-04-26T08:31:02;99608.77;;;5.33;65.64
54554;BME280;40450;55.848;-3.572;2023-04-26T08:33:32;99600.68;;;6.71;61.74
54554;BME280;40450;55.848;-3.572;2023-04-26T08:36:03;99597.22;;;7.02;61.04
54554;BME280;40450;55.848;-3.572;2023-04-26T08:38:33;99605.28;;;4.39;67.40
54554;BME280;40450;55.848;-3.572;2023-04-26T08:41:04;99594.78;;;9.08;58.01
54554;BME280;40450;55.848;-3.572;2023-04-26T08:43:36;99593.93;;;10.29;55.27
54554;BME280;40450;55.848;-3.572;2023-04-26T08:46:07;99595.78;;;9.25;55.16
54554;BME280;40450;55.848;-3.572;2023-04-26T08:48:35;99598.13;;;9.21;55.45
54554;BME280;40450;55.848;-3.572;2023-04-26T08:51:06;99595.48;;;10.16;53.58
54554;BME280;40450;55.848;-3.572;2023-04-26T08:53:36;99593.28;;;10.65;51.80
54554;BME280;40450;55.848;-3.572;2023-04-26T08:56:07;99590.99;;;11.21;51.87
54554;BME280;40450;55.848;-3.572;2023-04-26T08:58:37;99590.66;;;11.40;52.03
54554;BME280;40450;55.848;-3.572;2023-04-26T09:01:08;99586.14;;;11.19;49.15
54554;BME280;40450;55.848;-3.572;2023-04-26T09:03:37;99590.93;;;10.96;49.99
54554;BME280;40450;55.848;-3.572;2023-04-26T09:06:08;99589.67;;;11.48;50.71
54554;BME280;40450;55.848;-3.572;2023-04-26T09:08:39;99590.71;;;12.01;50.14
54554;BME280;40450;55.848;-3.572;2023-04-26T09:11:08;99590.16;;;11.98;47.51
54554;BME280;40450;55.848;-3.572;2023-04-26T09:13:39;99588.62;;;11.22;46.48
54554;BME280;40450;55.848;-3.572;2023-04-26T09:16:09;99587.67;;;10.81;47.95
54554;BME280;40450;55.848;-3.572;2023-04-26T09:18:46;99587.90;;;11.35;49.07
54554;BME280;40450;55.848;-3.572;2023-04-26T09:21:10;99593.59;;;10.11;50.60
54554;BME280;40450;55.848;-3.572;2023-04-26T09:26:15;99596.46;;;8.35;54.49
54554;BME280;40450;55.848;-3.572;2023-04-26T09:28:42;99595.62;;;9.68;52.59
54554;BME280;40450;55.848;-3.572;2023-04-26T09:31:34;99586.67;;;11.73;50.58
54554;BME280;40450;55.848;-3.572;2023-04-26T09:36:13;99592.32;;;8.95;52.76
54554;BME280;40450;55.848;-3.572;2023-04-26T09:38:43;99592.36;;;9.26;53.54
54554;BME280;40450;55.848;-3.572;2023-04-26T09:41:13;99594.85;;;7.79;58.44
54554;BME280;40450;55.848;-3.572;2023-04-26T09:43:44;99592.56;;;9.69;55.30
54554;BME280;40450;55.848;-3.572;2023-04-26T09:46:21;99595.20;;;7.46;60.98
54554;BME280;40450;55.848;-3.572;2023-04-26T09:48:44;99601.43;;;5.51;66.70
54554;BME280;40450;55.848;-3.572;2023-04-26T09:51:15;99594.26;;;6.12;65.03
54554;BME280;40450;55.848;-3.572;2023-04-26T09:53:48;99600.92;;;4.90;69.80
54554;BME280;40450;55.848;-3.572;2023-04-26T09:56:17;99597.02;;;5.35;67.35
54554;BME280;40450;55.848;-3.572;2023-04-26T09:58:55;99590.30;;;7.19;63.63
54554;BME280;40450;55.848;-3.572;2023-04-26T10:01:18;99591.88;;;5.68;66.58
54554;BME280;40450;55.848;-3.572;2023-04-26T10:03:48;99590.39;;;4.63;69.90
54554;BME280;40450;55.848;-3.572;2023-04-26T10:06:18;99584.09;;;6.82;65.49
54554;BME280;40450;55.848;-3.572;2023-04-26T10:08:49;99585.35;;;6.64;63.71
54554;BME280;40450;55.848;-3.572;2023-04-26T10:11:20;99581.11;;;6.32;63.21
54554;BME280;40450;55.848;-3.572;2023-04-26T10:13:50;99579.91;;;8.30;58.04
54554;BME280;40450;55.848;-3.572;2023-04-26T10:16:20;99577.66;;;8.25;60.97
54554;BME280;40450;55.848;-3.572;2023-04-26T10:18:50;99588.23;;;4.30;65.67
54554;BME280;40450;55.848;-3.572;2023-04-26T10:21:27;99577.45;;;7.03;62.16
54554;BME280;40450;55.848;-3.572;2023-04-26T10:23:51;99580.99;;;6.38;61.45
54554;BME280;40450;55.848;-3.572;2023-04-26T10:28:53;99585.46;;;4.52;65.37
54554;BME280;40450;55.848;-3.572;2023-04-26T10:31:22;99585.34;;;3.45;69.43
54554;BME280;40450;55.848;-3.572;2023-04-26T10:36:23;99584.39;;;5.04;63.70
54554;BME280;40450;55.848;-3.572;2023-04-26T10:41:29;99571.35;;;6.73;58.02
54554;BME280;40450;55.848;-3.572;2023-04-26T10:43:54;99570.89;;;7.02;59.03
54554;BME280;40450;55.848;-3.572;2023-04-26T10:46:35;99575.08;;;4.76;66.54
54554;BME280;40450;55.848;-3.572;2023-04-26T10:48:55;99565.16;;;8.01;60.07
54554;BME280;40450;55.848;-3.572;2023-04-26T10:51:26;99566.23;;;7.80;59.39
54554;BME280;40450;55.848;-3.572;2023-04-26T10:53:57;99566.53;;;8.06;55.68
54554;BME280;40450;55.848;-3.572;2023-04-26T10:59:06;99569.59;;;9.77;51.08
54554;BME280;40450;55.848;-3.572;2023-04-26T11:01:29;99566.93;;;9.38;54.72
54554;BME280;40450;55.848;-3.572;2023-04-26T11:04:05;99559.59;;;11.06;49.87
54554;BME280;40450;55.848;-3.572;2023-04-26T11:08:59;99551.19;;;11.74;47.79
54554;BME280;40450;55.848;-3.572;2023-04-26T11:11:28;99551.55;;;11.57;47.89
54554;BME280;40450;55.848;-3.572;2023-04-26T11:14:01;99551.75;;;11.17;49.67
54554;BME280;40450;55.848;-3.572;2023-04-26T11:16:29;99556.09;;;8.82;53.38
54554;BME280;40450;55.848;-3.572;2023-04-26T11:18:59;99559.28;;;5.53;61.80
54554;BME280;40450;55.848;-3.572;2023-04-26T11:21:30;99559.29;;;5.61;62.66
54554;BME280;40450;55.848;-3.572;2023-04-26T11:24:00;99554.62;;;8.79;55.63
54554;BME280;40450;55.848;-3.572;2023-04-26T11:26:32;99556.30;;;6.92;59.74
54554;BME280;40450;55.848;-3.572;2023-04-26T11:29:01;99558.52;;;6.84;59.48
54554;BME280;40450;55.848;-3.572;2023-04-26T11:31:31;99563.45;;;5.22;64.05
54554;BME280;40450;55.848;-3.572;2023-04-26T11:34:03;99557.35;;;5.68;63.56
54554;BME280;40450;55.848;-3.572;2023-04-26T11:36:36;99557.01;;;8.49;57.35
54554;BME280;40450;55.848;-3.572;2023-04-26T11:39:03;99559.96;;;6.07;61.14
54554;BME280;40450;55.848;-3.572;2023-04-26T11:41:33;99559.82;;;7.24;58.84
54554;BME280;40450;55.848;-3.572;2023-04-26T11:44:04;99557.37;;;9.54;54.78
54554;BME280;40450;55.848;-3.572;2023-04-26T11:46:34;99560.81;;;8.70;55.34
54554;BME280;40450;55.848;-3.572;2023-04-26T11:49:06;99558.38;;;9.39;53.00
54554;BME280;40450;55.848;-3.572;2023-04-26T11:51:35;99558.61;;;8.06;55.48
54554;BME280;40450;55.848;-3.572;2023-04-26T11:54:05;99557.12;;;9.39;52.58
54554;BME280;40450;55.848;-3.572;2023-04-26T11:56:35;99559.99;;;8.43;54.65
54554;BME280;40450;55.848;-3.572;2023-04-26T11:59:05;99560.76;;;9.95;52.13
54554;BME280;40450;55.848;-3.572;2023-04-26T12:01:36;99562.70;;;9.06;54.17
54554;BME280;40450;55.848;-3.572;2023-04-26T12:04:08;99567.22;;;6.96;59.89
54554;BME280;40450;55.848;-3.572;2023-04-26T12:06:41;99565.97;;;7.42;59.89
54554;BME280;40450;55.848;-3.572;2023-04-26T12:09:07;99565.42;;;7.79;58.99
54554;BME280;40450;55.848;-3.572;2023-04-26T12:11:38;99569.04;;;7.10;61.00
54554;BME280;40450;55.848;-3.572;2023-04-26T12:14:08;99565.31;;;5.96;63.92
54554;BME280;40450;55.848;-3.572;2023-04-26T12:16:41;99563.62;;;6.52;63.04
54554;BME280;40450;55.848;-3.572;2023-04-26T12:19:09;99565.81;;;5.58;65.32
54554;BME280;40450;55.848;-3.572;2023-04-26T12:21:40;99566.91;;;6.18;63.89
54554;BME280;40450;55.848;-3.572;2023-04-26T12:26:42;99563.75;;;9.77;55.75
54554;BME280;40450;55.848;-3.572;2023-04-26T12:29:11;99567.02;;;6.76;61.78
54554;BME280;40450;55.848;-3.572;2023-04-26T12:31:41;99567.84;;;8.83;57.84
54554;BME280;40450;55.848;-3.572;2023-04-26T12:34:12;99565.76;;;8.67;57.76
54554;BME280;40450;55.848;-3.572;2023-04-26T12:36:42;99579.02;;;4.75;67.20
54554;BME280;40450;55.848;-3.572;2023-04-26T12:39:12;99571.38;;;6.80;62.43
54554;BME280;40450;55.848;-3.572;2023-04-26T12:41:43;99576.06;;;5.40;65.56
54554;BME280;40450;55.848;-3.572;2023-04-26T12:44:13;99569.57;;;7.13;61.66
54554;BME280;40450;55.848;-3.572;2023-04-26T12:46:43;99566.95;;;8.44;59.28
54554;BME280;40450;55.848;-3.572;2023-04-26T12:49:13;99566.06;;;7.82;60.09
54554;BME280;40450;55.848;-3.572;2023-04-26T12:51:44;99571.78;;;6.27;62.52
54554;BME280;40450;55.848;-3.572;2023-04-26T12:54:14;99568.97;;;6.01;63.21
54554;BME280;40450;55.848;-3.572;2023-04-26T12:56:44;99568.84;;;9.43;56.26
54554;BME280;40450;55.848;-3.572;2023-04-26T12:59:15;99570.78;;;8.67;58.95
54554;BME280;40450;55.848;-3.572;2023-04-26T13:01:45;99567.25;;;11.20;56.07
54554;BME280;40450;55.848;-3.572;2023-04-26T13:04:16;99565.54;;;10.36;53.83
54554;BME280;40450;55.848;-3.572;2023-04-26T13:06:46;99573.56;;;9.51;53.75
54554;BME280;40450;55.848;-3.572;2023-04-26T13:09:16;99586.42;;;5.03;65.60
54554;BME280;40450;55.848;-3.572;2023-04-26T13:11:47;99588.15;;;4.86;66.76
54554;BME280;40450;55.848;-3.572;2023-04-26T13:14:18;99581.02;;;6.85;60.54
54554;BME280;40450;55.848;-3.572;2023-04-26T13:16:48;99577.70;;;9.31;53.37
54554;BME280;40450;55.848;-3.572;2023-04-26T13:19:18;99573.61;;;10.92;54.09
54554;BME280;40450;55.848;-3.572;2023-04-26T13:21:48;99576.13;;;10.27;52.92
54554;BME280;40450;55.848;-3.572;2023-04-26T13:24:19;99578.39;;;10.08;52.38
54554;BME280;40450;55.848;-3.572;2023-04-26T13:26:49;99579.70;;;9.03;53.50
54554;BME280;40450;55.848;-3.572;2023-04-26T13:29:19;99573.96;;;10.39;51.89
54554;BME280;40450;55.848;-3.572;2023-04-26T13:31:50;99571.61;;;12.56;46.84
54554;BME280;40450;55.848;-3.572;2023-04-26T13:34:20;99566.95;;;12.47;44.52
54554;BME280;40450;55.848;-3.572;2023-04-26T13:36:51;99569.96;;;12.48;46.13